sensor_id;sensor_type;location;lat;lon;timestamp;P1;durP1;ratioP1;P2;durP2;ratioP2
74630;SDS011;63138;55.082;38.804;2023-05-29T00:01:38;6.73;;;3.80;;
74630;SDS011;63138;55.082;38.804;2023-05-29T00:04:06;5.93;;;3.65;;
74630;SDS011;63138;55.082;38.804;2023-05-29T00:06:32;9.75;;;3.60;;
74630;SDS011;63138;55.082;38.804;2023-05-29T00:08:57;6.50;;;3.30;;
74630;SDS011;63138;55.082;38.804;2023-05-29T00:11:23;6.07;;;3.50;;
74630;SDS011;63138;55.082;38.804;2023-05-29T00:13:49;7.38;;;3.38;;
74630;SDS011;63138;55.082;38.804;2023-05-29T00:16:16;6.80;;;3.47;;
74630;SDS011;63138;55.082;38.804;2023-05-29T00:18:43;6.20;;;3.40;;
74630;SDS011;63138;55.082;38.804;2023-05-29T00:21:12;6.30;;;3.53;;
74630;SDS011;63138;55.082;38.804;2023-05-29T00:23:40;7.60;;;3.80;;
74630;SDS011;63138;55.082;38.804;2023-05-29T00:26:06;6.65;;;3.63;;
74630;SDS011;63138;55.082;38.804;2023-05-29T00:28:34;7.20;;;3.87;;
74630;SDS011;63138;55.082;38.804;2023-05-29T00:31:02;6.13;;;3.75;;
74630;SDS011;63138;55.082;38.804;2023-05-29T00:33:29;8.90;;;3.70;;
74630;SDS011;63138;55.082;38.804;2023-05-29T00:35:55;5.78;;;3.70;;
74630;SDS011;63138;55.082;38.804;2023-05-29T00:38:23;8.48;;;3.88;;
74630;SDS011;63138;55.082;38.804;2023-05-29T00:40:49;6.27;;;3.33;;
74630;SDS011;63138;55.082;38.804;2023-05-29T00:43:15;6.75;;;3.60;;
74630;SDS011;63138;55.082;38.804;2023-05-29T00:45:41;5.38;;;3.28;;
74630;SDS011;63138;55.082;38.804;2023-05-29T00:48:07;7.63;;;3.43;;
74630;SDS011;63138;55.082;38.804;2023-05-29T00:50:34;7.15;;;3.75;;
74630;SDS011;63138;55.082;38.804;2023-05-29T00:53:01;7.65;;;3.92;;
74630;SDS011;63138;55.082;38.804;2023-05-29T00:55:28;7.30;;;3.45;;
74630;SDS011;63138;55.082;38.804;2023-05-29T00:57:55;6.43;;;3.53;;
74630;SDS011;63138;55.082;38.804;2023-05-29T01:00:21;6.63;;;3.47;;
74630;SDS011;63138;55.082;38.804;2023-05-29T01:02:48;9.27;;;3.63;;
74630;SDS011;63138;55.082;38.804;2023-05-29T01:05:14;5.90;;;3.25;;
74630;SDS011;63138;55.082;38.804;2023-05-29T01:07:44;7.95;;;5.22;;
74630;SDS011;63138;55.082;38.804;2023-05-29T01:10:12;7.10;;;3.70;;
74630;SDS011;63138;55.082;38.804;2023-05-29T01:12:43;6.38;;;3.58;;
74630;SDS011;63138;55.082;38.804;2023-05-29T01:20:50;6.72;;;3.75;;
74630;SDS011;63138;55.082;38.804;2023-05-29T01:26:50;6.35;;;3.42;;
74630;SDS011;63138;55.082;38.804;2023-05-29T01:28:57;6.80;;;4.00;;
74630;SDS011;63138;55.082;38.804;2023-05-29T01:31:26;6.47;;;3.75;;
74630;SDS011;63138;55.082;38.804;2023-05-29T01:33:54;7.78;;;3.50;;
74630;SDS011;63138;55.082;38.804;2023-05-29T01:36:22;6.73;;;3.60;;
74630;SDS011;63138;55.082;38.804;2023-05-29T01:38:49;7.43;;;3.78;;
74630;SDS011;63138;55.082;38.804;2023-05-29T01:41:17;7.35;;;3.50;;
74630;SDS011;63138;55.082;38.804;2023-05-29T01:44:03;6.78;;;3.13;;
74630;SDS011;63138;55.082;38.804;2023-05-29T01:46:34;7.28;;;3.53;;
74630;SDS011;63138;55.082;38.804;2023-05-29T01:49:02;4.53;;;3.27;;
74630;SDS011;63138;55.082;38.804;2023-05-29T01:51:28;5.57;;;3.25;;
74630;SDS011;63138;55.082;38.804;2023-05-29T01:53:57;6.43;;;3.60;;
74630;SDS011;63138;55.082;38.804;2023-05-29T01:56:25;6.78;;;3.85;;
74630;SDS011;63138;55.082;38.804;2023-05-29T01:58:53;5.82;;;3.72;;
74630;SDS011;63138;55.082;38.804;2023-05-29T02:01:21;4.83;;;3.67;;
74630;SDS011;63138;55.082;38.804;2023-05-29T02:03:48;5.18;;;3.70;;
74630;SDS011;63138;55.082;38.804;2023-05-29T02:06:14;5.85;;;3.60;;
74630;SDS011;63138;55.082;38.804;2023-05-29T02:08:41;6.72;;;3.58;;
74630;SDS011;63138;55.082;38.804;2023-05-29T02:11:07;7.78;;;3.92;;
74630;SDS011;63138;55.082;38.804;2023-05-29T02:13:33;6.07;;;3.50;;
74630;SDS011;63138;55.082;38.804;2023-05-29T02:15:59;6.65;;;3.72;;
74630;SDS011;63138;55.082;38.804;2023-05-29T02:18:26;5.75;;;3.90;;
74630;SDS011;63138;55.082;38.804;2023-05-29T02:20:52;5.72;;;3.63;;
74630;SDS011;63138;55.082;38.804;2023-05-29T02:23:21;6.00;;;3.80;;
74630;SDS011;63138;55.082;38.804;2023-05-29T02:25:47;7.27;;;4.10;;
74630;SDS011;63138;55.082;38.804;2023-05-29T02:28:13;5.95;;;3.60;;
74630;SDS011;63138;55.082;38.804;2023-05-29T02:30:39;5.10;;;4.07;;
74630;SDS011;63138;55.082;38.804;2023-05-29T02:33:08;4.95;;;3.80;;
74630;SDS011;63138;55.082;38.804;2023-05-29T02:35:35;6.45;;;4.07;;
74630;SDS011;63138;55.082;38.804;2023-05-29T02:38:02;4.47;;;3.83;;
74630;SDS011;63138;55.082;38.804;2023-05-29T02:40:28;5.90;;;4.00;;
74630;SDS011;63138;55.082;38.804;2023-05-29T02:42:57;5.00;;;3.97;;
74630;SDS011;63138;55.082;38.804;2023-05-29T02:45:23;4.73;;;3.80;;
74630;SDS011;63138;55.082;38.804;2023-05-29T02:47:50;5.35;;;3.88;;
74630;SDS011;63138;55.082;38.804;2023-05-29T02:50:16;7.65;;;4.32;;
74630;SDS011;63138;55.082;38.804;2023-05-29T02:52:42;5.28;;;4.10;;
74630;SDS011;63138;55.082;38.804;2023-05-29T02:55:08;5.80;;;3.93;;
74630;SDS011;63138;55.082;38.804;2023-05-29T02:57:34;5.43;;;4.40;;
74630;SDS011;63138;55.082;38.804;2023-05-29T03:00:00;6.75;;;4.30;;
74630;SDS011;63138;55.082;38.804;2023-05-29T03:02:30;9.98;;;4.50;;
74630;SDS011;63138;55.082;38.804;2023-05-29T03:04:56;4.30;;;3.90;;
74630;SDS011;63138;55.082;38.804;2023-05-29T03:07:22;6.28;;;4.55;;
74630;SDS011;63138;55.082;38.804;2023-05-29T03:09:48;6.85;;;4.25;;
74630;SDS011;63138;55.082;38.804;2023-05-29T03:12:15;5.45;;;3.13;;
74630;SDS011;63138;55.082;38.804;2023-05-29T03:14:42;6.07;;;2.77;;
74630;SDS011;63138;55.082;38.804;2023-05-29T03:17:11;6.03;;;2.75;;
74630;SDS011;63138;55.082;38.804;2023-05-29T03:19:37;4.70;;;2.85;;
74630;SDS011;63138;55.082;38.804;2023-05-29T03:22:04;5.55;;;3.00;;
74630;SDS011;63138;55.082;38.804;2023-05-29T03:24:32;4.82;;;3.00;;
74630;SDS011;63138;55.082;38.804;2023-05-29T03:27:01;5.93;;;3.07;;
74630;SDS011;63138;55.082;38.804;2023-05-29T03:29:34;6.30;;;2.92;;
74630;SDS011;63138;55.082;38.804;2023-05-29T03:32:01;5.47;;;3.05;;
74630;SDS011;63138;55.082;38.804;2023-05-29T03:34:30;5.13;;;3.05;;
74630;SDS011;63138;55.082;38.804;2023-05-29T03:36:58;5.25;;;3.05;;
74630;SDS011;63138;55.082;38.804;2023-05-29T03:39:26;6.80;;;2.67;;
74630;SDS011;63138;55.082;38.804;2023-05-29T03:41:52;5.22;;;2.65;;
74630;SDS011;63138;55.082;38.804;2023-05-29T03:44:18;5.45;;;2.97;;
74630;SDS011;63138;55.082;38.804;2023-05-29T03:46:44;5.50;;;3.38;;
74630;SDS011;63138;55.082;38.804;2023-05-29T03:49:12;4.55;;;2.70;;
74630;SDS011;63138;55.082;38.804;2023-05-29T03:51:38;5.60;;;2.67;;
74630;SDS011;63138;55.082;38.804;2023-05-29T03:54:04;4.45;;;2.88;;
74630;SDS011;63138;55.082;38.804;2023-05-29T03:56:32;4.53;;;3.15;;
74630;SDS011;63138;55.082;38.804;2023-05-29T03:58:58;5.50;;;2.95;;
74630;SDS011;63138;55.082;38.804;2023-05-29T04:01:23;10.47;;;3.20;;
74630;SDS011;63138;55.082;38.804;2023-05-29T04:03:49;3.67;;;2.67;;
74630;SDS011;63138;55.082;38.804;2023-05-29T04:06:16;4.35;;;2.63;;
74630;SDS011;63138;55.082;38.804;2023-05-29T04:08:42;6.07;;;3.13;;
74630;SDS011;63138;55.082;38.804;2023-05-29T04:14:25;6.13;;;2.80;;
74630;SDS011;63138;55.082;38.804;2023-05-29T04:16:50;5.60;;;2.63;;
74630;SDS011;63138;55.082;38.804;2023-05-29T04:19:32;5.37;;;3.57;;
74630;SDS011;63138;55.082;38.804;2023-05-29T04:22:03;5.00;;;2.90;;
74630;SDS011;63138;55.082;38.804;2023-05-29T04:24:30;3.50;;;2.40;;
74630;SDS011;63138;55.082;38.804;2023-05-29T04:26:57;4.53;;;3.03;;
74630;SDS011;63138;55.082;38.804;2023-05-29T04:29:26;9.55;;;3.97;;
74630;SDS011;63138;55.082;38.804;2023-05-29T04:31:52;5.83;;;4.10;;
74630;SDS011;63138;55.082;38.804;2023-05-29T04:34:18;7.00;;;3.95;;
74630;SDS011;63138;55.082;38.804;2023-05-29T04:36:46;7.22;;;3.85;;
74630;SDS011;63138;55.082;38.804;2023-05-29T04:39:13;6.10;;;4.07;;
74630;SDS011;63138;55.082;38.804;2023-05-29T04:41:39;6.53;;;4.20;;
74630;SDS011;63138;55.082;38.804;2023-05-29T04:44:09;6.20;;;4.05;;
74630;SDS011;63138;55.082;38.804;2023-05-29T04:46:55;6.38;;;4.35;;
74630;SDS011;63138;55.082;38.804;2023-05-29T04:49:22;7.72;;;4.22;;
74630;SDS011;63138;55.082;38.804;2023-05-29T04:51:49;4.88;;;3.78;;
74630;SDS011;63138;55.082;38.804;2023-05-29T04:54:18;10.50;;;4.03;;
74630;SDS011;63138;55.082;38.804;2023-05-29T04:59:55;5.22;;;4.10;;
74630;SDS011;63138;55.082;38.804;2023-05-29T05:02:43;8.98;;;3.97;;
74630;SDS011;63138;55.082;38.804;2023-05-29T05:05:10;10.98;;;4.20;;
74630;SDS011;63138;55.082;38.804;2023-05-29T05:07:37;6.17;;;4.07;;
74630;SDS011;63138;55.082;38.804;2023-05-29T05:10:03;5.18;;;3.88;;
74630;SDS011;63138;55.082;38.804;2023-05-29T05:12:31;6.15;;;4.10;;
74630;SDS011;63138;55.082;38.804;2023-05-29T05:14:58;7.35;;;5.20;;
74630;SDS011;63138;55.082;38.804;2023-05-29T05:17:25;6.47;;;4.35;;
74630;SDS011;63138;55.082;38.804;2023-05-29T05:19:52;4.93;;;3.70;;
74630;SDS011;63138;55.082;38.804;2023-05-29T05:22:37;6.18;;;4.03;;
74630;SDS011;63138;55.082;38.804;2023-05-29T05:25:04;7.32;;;4.35;;
74630;SDS011;63138;55.082;38.804;2023-05-29T05:27:31;7.03;;;4.15;;
74630;SDS011;63138;55.082;38.804;2023-05-29T05:29:58;7.90;;;4.50;;
74630;SDS011;63138;55.082;38.804;2023-05-29T05:32:25;7.30;;;4.50;;
74630;SDS011;63138;55.082;38.804;2023-05-29T05:34:59;5.32;;;4.30;;
74630;SDS011;63138;55.082;38.804;2023-05-29T05:37:25;8.75;;;4.40;;
74630;SDS011;63138;55.082;38.804;2023-05-29T05:39:51;5.17;;;4.00;;
74630;SDS011;63138;55.082;38.804;2023-05-29T05:42:19;5.53;;;3.95;;
74630;SDS011;63138;55.082;38.804;2023-05-29T05:44:58;7.53;;;3.75;;
74630;SDS011;63138;55.082;38.804;2023-05-29T05:47:24;7.57;;;3.67;;
74630;SDS011;63138;55.082;38.804;2023-05-29T05:49:50;7.95;;;4.45;;
74630;SDS011;63138;55.082;38.804;2023-05-29T05:52:20;6.90;;;4.30;;
74630;SDS011;63138;55.082;38.804;2023-05-29T05:54:46;4.63;;;4.00;;
74630;SDS011;63138;55.082;38.804;2023-05-29T05:57:13;5.75;;;4.10;;
74630;SDS011;63138;55.082;38.804;2023-05-29T05:59:38;4.97;;;3.80;;
74630;SDS011;63138;55.082;38.804;2023-05-29T06:02:05;10.20;;;4.47;;
74630;SDS011;63138;55.082;38.804;2023-05-29T06:04:31;11.18;;;4.15;;
74630;SDS011;63138;55.082;38.804;2023-05-29T06:06:58;4.65;;;4.03;;
74630;SDS011;63138;55.082;38.804;2023-05-29T06:09:24;5.25;;;4.00;;
74630;SDS011;63138;55.082;38.804;2023-05-29T06:11:52;6.25;;;4.35;;
74630;SDS011;63138;55.082;38.804;2023-05-29T06:14:18;5.73;;;3.90;;
74630;SDS011;63138;55.082;38.804;2023-05-29T06:16:44;5.50;;;4.05;;
74630;SDS011;63138;55.082;38.804;2023-05-29T06:19:10;6.60;;;4.20;;
74630;SDS011;63138;55.082;38.804;2023-05-29T06:21:49;4.55;;;3.72;;
74630;SDS011;63138;55.082;38.804;2023-05-29T06:24:15;4.82;;;4.03;;
74630;SDS011;63138;55.082;38.804;2023-05-29T06:26:41;5.00;;;3.80;;
74630;SDS011;63138;55.082;38.804;2023-05-29T06:29:10;4.82;;;3.90;;
74630;SDS011;63138;55.082;38.804;2023-05-29T06:31:35;6.15;;;4.20;;
74630;SDS011;63138;55.082;38.804;2023-05-29T06:34:01;6.60;;;4.00;;
74630;SDS011;63138;55.082;38.804;2023-05-29T06:36:27;4.85;;;3.90;;
74630;SDS011;63138;55.082;38.804;2023-05-29T06:38:53;4.85;;;3.60;;
74630;SDS011;63138;55.082;38.804;2023-05-29T06:41:20;5.03;;;4.30;;
74630;SDS011;63138;55.082;38.804;2023-05-29T06:43:49;6.43;;;4.40;;
74630;SDS011;63138;55.082;38.804;2023-05-29T06:46:16;4.72;;;3.72;;
74630;SDS011;63138;55.082;38.804;2023-05-29T06:48:42;4.57;;;3.80;;
74630;SDS011;63138;55.082;38.804;2023-05-29T06:51:08;5.10;;;3.92;;
74630;SDS011;63138;55.082;38.804;2023-05-29T06:53:53;5.43;;;4.13;;
74630;SDS011;63138;55.082;38.804;2023-05-29T06:56:20;4.30;;;3.47;;
74630;SDS011;63138;55.082;38.804;2023-05-29T06:59:06;4.38;;;3.65;;
74630;SDS011;63138;55.082;38.804;2023-05-29T07:04:23;5.65;;;4.00;;
74630;SDS011;63138;55.082;38.804;2023-05-29T07:06:49;4.60;;;3.65;;
74630;SDS011;63138;55.082;38.804;2023-05-29T07:12:18;7.00;;;4.00;;
74630;SDS011;63138;55.082;38.804;2023-05-29T07:14:45;4.32;;;3.75;;
74630;SDS011;63138;55.082;38.804;2023-05-29T07:17:14;6.90;;;3.78;;
74630;SDS011;63138;55.082;38.804;2023-05-29T07:19:41;4.47;;;3.53;;
74630;SDS011;63138;55.082;38.804;2023-05-29T07:22:09;10.20;;;4.27;;
74630;SDS011;63138;55.082;38.804;2023-05-29T07:24:36;5.22;;;3.45;;
74630;SDS011;63138;55.082;38.804;2023-05-29T07:27:04;4.47;;;3.30;;
74630;SDS011;63138;55.082;38.804;2023-05-29T07:29:31;5.40;;;3.72;;
74630;SDS011;63138;55.082;38.804;2023-05-29T07:31:59;4.70;;;3.80;;
74630;SDS011;63138;55.082;38.804;2023-05-29T07:34:24;5.60;;;4.37;;
74630;SDS011;63138;55.082;38.804;2023-05-29T07:37:04;5.90;;;3.63;;
74630;SDS011;63138;55.082;38.804;2023-05-29T07:39:34;4.10;;;3.53;;
74630;SDS011;63138;55.082;38.804;2023-05-29T07:42:07;4.50;;;3.50;;
74630;SDS011;63138;55.082;38.804;2023-05-29T07:44:34;7.30;;;3.63;;
74630;SDS011;63138;55.082;38.804;2023-05-29T07:50:22;5.40;;;3.80;;
74630;SDS011;63138;55.082;38.804;2023-05-29T07:52:51;6.82;;;3.70;;
74630;SDS011;63138;55.082;38.804;2023-05-29T07:55:36;4.30;;;3.90;;
74630;SDS011;63138;55.082;38.804;2023-05-29T07:58:02;5.28;;;1.98;;
74630;SDS011;63138;55.082;38.804;2023-05-29T08:00:47;3.97;;;1.88;;
74630;SDS011;63138;55.082;38.804;2023-05-29T08:03:38;4.00;;;3.60;;
74630;SDS011;63138;55.082;38.804;2023-05-29T08:06:15;4.28;;;3.88;;
74630;SDS011;63138;55.082;38.804;2023-05-29T08:08:42;4.37;;;3.40;;
74630;SDS011;63138;55.082;38.804;2023-05-29T08:11:09;4.85;;;3.50;;
74630;SDS011;63138;55.082;38.804;2023-05-29T08:13:37;4.30;;;3.75;;
74630;SDS011;63138;55.082;38.804;2023-05-29T08:16:03;4.80;;;3.90;;
74630;SDS011;63138;55.082;38.804;2023-05-29T08:18:30;4.03;;;3.63;;
74630;SDS011;63138;55.082;38.804;2023-05-29T08:20:56;4.37;;;3.60;;
74630;SDS011;63138;55.082;38.804;2023-05-29T08:23:23;5.63;;;3.88;;
74630;SDS011;63138;55.082;38.804;2023-05-29T08:26:07;5.38;;;4.20;;
74630;SDS011;63138;55.082;38.804;2023-05-29T08:28:53;5.22;;;3.78;;
74630;SDS011;63138;55.082;38.804;2023-05-29T08:34:11;5.83;;;3.90;;
74630;SDS011;63138;55.082;38.804;2023-05-29T08:36:37;4.43;;;4.03;;
74630;SDS011;63138;55.082;38.804;2023-05-29T08:39:03;5.18;;;2.63;;
74630;SDS011;63138;55.082;38.804;2023-05-29T08:41:36;4.50;;;2.53;;
74630;SDS011;63138;55.082;38.804;2023-05-29T08:44:40;3.73;;;2.60;;
74630;SDS011;63138;55.082;38.804;2023-05-29T08:47:10;4.72;;;3.42;;
74630;SDS011;63138;55.082;38.804;2023-05-29T08:49:42;6.57;;;4.00;;
74630;SDS011;63138;55.082;38.804;2023-05-29T08:52:19;7.93;;;3.50;;
74630;SDS011;63138;55.082;38.804;2023-05-29T08:54:46;3.92;;;3.53;;
74630;SDS011;63138;55.082;38.804;2023-05-29T08:57:12;4.63;;;3.80;;
74630;SDS011;63138;55.082;38.804;2023-05-29T08:59:39;4.90;;;3.40;;
74630;SDS011;63138;55.082;38.804;2023-05-29T09:02:09;4.25;;;2.80;;
74630;SDS011;63138;55.082;38.804;2023-05-29T09:04:35;3.83;;;3.28;;
74630;SDS011;63138;55.082;38.804;2023-05-29T09:07:01;3.50;;;3.20;;
74630;SDS011;63138;55.082;38.804;2023-05-29T09:09:29;5.53;;;3.47;;
74630;SDS011;63138;55.082;38.804;2023-05-29T09:11:57;4.60;;;3.75;;
74630;SDS011;63138;55.082;38.804;2023-05-29T09:14:43;3.70;;;3.30;;
74630;SDS011;63138;55.082;38.804;2023-05-29T09:17:11;3.50;;;3.10;;
74630;SDS011;63138;55.082;38.804;2023-05-29T09:19:38;3.70;;;3.40;;
74630;SDS011;63138;55.082;38.804;2023-05-29T09:22:07;3.85;;;3.03;;
74630;SDS011;63138;55.082;38.804;2023-05-29T09:24:36;4.50;;;2.40;;
74630;SDS011;63138;55.082;38.804;2023-05-29T09:27:04;6.63;;;3.65;;
74630;SDS011;63138;55.082;38.804;2023-05-29T09:29:32;4.27;;;3.40;;
74630;SDS011;63138;55.082;38.804;2023-05-29T09:31:59;3.70;;;2.88;;
74630;SDS011;63138;55.082;38.804;2023-05-29T09:34:26;5.78;;;3.50;;
74630;SDS011;63138;55.082;38.804;2023-05-29T09:36:53;4.28;;;3.40;;
74630;SDS011;63138;55.082;38.804;2023-05-29T09:39:21;4.07;;;3.05;;
74630;SDS011;63138;55.082;38.804;2023-05-29T09:41:47;3.90;;;2.80;;
74630;SDS011;63138;55.082;38.804;2023-05-29T09:44:14;3.50;;;3.08;;
74630;SDS011;63138;55.082;38.804;2023-05-29T09:46:42;4.15;;;2.70;;
74630;SDS011;63138;55.082;38.804;2023-05-29T09:49:10;6.45;;;3.47;;
74630;SDS011;63138;55.082;38.804;2023-05-29T09:51:39;3.43;;;2.13;;
74630;SDS011;63138;55.082;38.804;2023-05-29T09:54:16;6.07;;;3.15;;
74630;SDS011;63138;55.082;38.804;2023-05-29T09:56:43;3.40;;;3.00;;
74630;SDS011;63138;55.082;38.804;2023-05-29T09:59:13;3.92;;;2.90;;
74630;SDS011;63138;55.082;38.804;2023-05-29T10:01:41;4.07;;;3.00;;
74630;SDS011;63138;55.082;38.804;2023-05-29T10:04:11;4.20;;;2.83;;
74630;SDS011;63138;55.082;38.804;2023-05-29T10:06:45;3.40;;;2.53;;
74630;SDS011;63138;55.082;38.804;2023-05-29T10:09:15;7.25;;;2.80;;
74630;SDS011;63138;55.082;38.804;2023-05-29T10:11:43;3.60;;;2.80;;
74630;SDS011;63138;55.082;38.804;2023-05-29T10:14:17;5.22;;;2.20;;
74630;SDS011;63138;55.082;38.804;2023-05-29T10:16:45;2.97;;;1.87;;
74630;SDS011;63138;55.082;38.804;2023-05-29T10:19:13;4.13;;;2.17;;
74630;SDS011;63138;55.082;38.804;2023-05-29T10:22:01;3.92;;;2.17;;
74630;SDS011;63138;55.082;38.804;2023-05-29T10:24:29;3.90;;;1.98;;
74630;SDS011;63138;55.082;38.804;2023-05-29T10:26:57;3.28;;;2.30;;
74630;SDS011;63138;55.082;38.804;2023-05-29T10:29:28;5.17;;;2.40;;
74630;SDS011;63138;55.082;38.804;2023-05-29T10:40:04;3.58;;;2.53;;
74630;SDS011;63138;55.082;38.804;2023-05-29T10:50:36;7.85;;;2.63;;
74630;SDS011;63138;55.082;38.804;2023-05-29T10:53:10;3.88;;;2.30;;
74630;SDS011;63138;55.082;38.804;2023-05-29T10:55:40;4.50;;;2.40;;
74630;SDS011;63138;55.082;38.804;2023-05-29T10:58:25;4.85;;;2.47;;
74630;SDS011;63138;55.082;38.804;2023-05-29T11:00:52;4.55;;;2.60;;
74630;SDS011;63138;55.082;38.804;2023-05-29T11:03:22;4.22;;;2.50;;
74630;SDS011;63138;55.082;38.804;2023-05-29T11:08:34;3.67;;;2.20;;
74630;SDS011;63138;55.082;38.804;2023-05-29T11:11:07;4.55;;;2.53;;
74630;SDS011;63138;55.082;38.804;2023-05-29T11:13:37;4.25;;;2.38;;
74630;SDS011;63138;55.082;38.804;2023-05-29T11:18:51;5.07;;;2.20;;
74630;SDS011;63138;55.082;38.804;2023-05-29T11:24:22;4.55;;;2.50;;
74630;SDS011;63138;55.082;38.804;2023-05-29T11:26:53;3.35;;;2.50;;
74630;SDS011;63138;55.082;38.804;2023-05-29T11:29:24;4.00;;;2.33;;
74630;SDS011;63138;55.082;38.804;2023-05-29T11:31:57;3.55;;;2.42;;
74630;SDS011;63138;55.082;38.804;2023-05-29T11:34:28;3.80;;;2.40;;
74630;SDS011;63138;55.082;38.804;2023-05-29T11:36:57;3.50;;;2.38;;
74630;SDS011;63138;55.082;38.804;2023-05-29T11:39:26;4.63;;;2.90;;
74630;SDS011;63138;55.082;38.804;2023-05-29T11:41:54;3.85;;;2.30;;
74630;SDS011;63138;55.082;38.804;2023-05-29T11:44:20;4.97;;;2.47;;
74630;SDS011;63138;55.082;38.804;2023-05-29T11:47:05;5.07;;;2.57;;
74630;SDS011;63138;55.082;38.804;2023-05-29T11:49:33;4.85;;;2.50;;
74630;SDS011;63138;55.082;38.804;2023-05-29T11:52:10;4.38;;;2.50;;
74630;SDS011;63138;55.082;38.804;2023-05-29T11:54:42;3.63;;;2.70;;
74630;SDS011;63138;55.082;38.804;2023-05-29T11:57:22;5.35;;;2.85;;
74630;SDS011;63138;55.082;38.804;2023-05-29T11:59:51;3.77;;;2.27;;
74630;SDS011;63138;55.082;38.804;2023-05-29T12:02:23;3.47;;;2.35;;
74630;SDS011;63138;55.082;38.804;2023-05-29T12:05:00;3.92;;;1.90;;
74630;SDS011;63138;55.082;38.804;2023-05-29T12:10:19;3.75;;;2.20;;
74630;SDS011;63138;55.082;38.804;2023-05-29T12:12:47;4.17;;;2.43;;
74630;SDS011;63138;55.082;38.804;2023-05-29T12:15:16;4.15;;;2.30;;
74630;SDS011;63138;55.082;38.804;2023-05-29T12:17:44;3.42;;;2.58;;
74630;SDS011;63138;55.082;38.804;2023-05-29T12:20:12;3.50;;;2.35;;
74630;SDS011;63138;55.082;38.804;2023-05-29T12:22:39;4.68;;;2.63;;
74630;SDS011;63138;55.082;38.804;2023-05-29T12:25:07;3.83;;;2.70;;
74630;SDS011;63138;55.082;38.804;2023-05-29T12:27:35;3.80;;;2.50;;
74630;SDS011;63138;55.082;38.804;2023-05-29T12:30:07;3.88;;;2.47;;
74630;SDS011;63138;55.082;38.804;2023-05-29T12:32:37;4.45;;;2.60;;
74630;SDS011;63138;55.082;38.804;2023-05-29T12:38:01;5.50;;;2.80;;
74630;SDS011;63138;55.082;38.804;2023-05-29T12:40:30;3.67;;;2.20;;
74630;SDS011;63138;55.082;38.804;2023-05-29T12:43:03;4.28;;;2.53;;
74630;SDS011;63138;55.082;38.804;2023-05-29T12:45:32;5.55;;;2.30;;
74630;SDS011;63138;55.082;38.804;2023-05-29T12:48:00;4.93;;;2.50;;
74630;SDS011;63138;55.082;38.804;2023-05-29T12:50:29;4.53;;;2.30;;
74630;SDS011;63138;55.082;38.804;2023-05-29T12:53:17;6.25;;;2.60;;
74630;SDS011;63138;55.082;38.804;2023-05-29T12:55:44;4.13;;;2.40;;
74630;SDS011;63138;55.082;38.804;2023-05-29T12:58:12;4.68;;;2.70;;
74630;SDS011;63138;55.082;38.804;2023-05-29T13:00:43;4.32;;;2.30;;
74630;SDS011;63138;55.082;38.804;2023-05-29T13:03:11;3.70;;;2.60;;
74630;SDS011;63138;55.082;38.804;2023-05-29T13:05:38;8.38;;;2.67;;
74630;SDS011;63138;55.082;38.804;2023-05-29T13:08:04;4.97;;;2.40;;
74630;SDS011;63138;55.082;38.804;2023-05-29T13:10:32;4.78;;;2.08;;
74630;SDS011;63138;55.082;38.804;2023-05-29T13:12:59;3.38;;;2.40;;
74630;SDS011;63138;55.082;38.804;2023-05-29T13:15:25;3.37;;;2.50;;
74630;SDS011;63138;55.082;38.804;2023-05-29T13:17:52;4.18;;;2.65;;
74630;SDS011;63138;55.082;38.804;2023-05-29T13:20:54;4.50;;;2.75;;
74630;SDS011;63138;55.082;38.804;2023-05-29T13:23:20;3.57;;;2.63;;
74630;SDS011;63138;55.082;38.804;2023-05-29T13:25:46;5.53;;;2.50;;
74630;SDS011;63138;55.082;38.804;2023-05-29T13:28:14;3.38;;;2.10;;
74630;SDS011;63138;55.082;38.804;2023-05-29T13:30:41;4.90;;;2.83;;
74630;SDS011;63138;55.082;38.804;2023-05-29T13:33:07;4.85;;;2.65;;
74630;SDS011;63138;55.082;38.804;2023-05-29T13:35:32;4.27;;;2.70;;
74630;SDS011;63138;55.082;38.804;2023-05-29T13:38:17;3.97;;;2.30;;
74630;SDS011;63138;55.082;38.804;2023-05-29T13:40:43;5.40;;;2.33;;
74630;SDS011;63138;55.082;38.804;2023-05-29T13:43:09;5.10;;;2.72;;
74630;SDS011;63138;55.082;38.804;2023-05-29T13:45:35;4.50;;;2.30;;
74630;SDS011;63138;55.082;38.804;2023-05-29T13:48:01;4.75;;;2.00;;
74630;SDS011;63138;55.082;38.804;2023-05-29T13:50:27;4.32;;;2.25;;
74630;SDS011;63138;55.082;38.804;2023-05-29T13:52:53;3.33;;;2.22;;
74630;SDS011;63138;55.082;38.804;2023-05-29T13:55:19;4.10;;;2.27;;
74630;SDS011;63138;55.082;38.804;2023-05-29T13:57:46;6.47;;;2.10;;
74630;SDS011;63138;55.082;38.804;2023-05-29T14:00:12;4.07;;;2.50;;
74630;SDS011;63138;55.082;38.804;2023-05-29T14:02:38;4.93;;;2.38;;
74630;SDS011;63138;55.082;38.804;2023-05-29T14:05:06;5.63;;;2.23;;
74630;SDS011;63138;55.082;38.804;2023-05-29T14:07:32;3.47;;;2.20;;
74630;SDS011;63138;55.082;38.804;2023-05-29T14:09:58;5.47;;;2.47;;
74630;SDS011;63138;55.082;38.804;2023-05-29T14:12:25;4.90;;;2.40;;
74630;SDS011;63138;55.082;38.804;2023-05-29T14:14:51;3.78;;;1.90;;
74630;SDS011;63138;55.082;38.804;2023-05-29T14:17:17;4.03;;;2.40;;
74630;SDS011;63138;55.082;38.804;2023-05-29T14:19:42;5.00;;;2.50;;
74630;SDS011;63138;55.082;38.804;2023-05-29T14:22:11;4.78;;;2.17;;
74630;SDS011;63138;55.082;38.804;2023-05-29T14:24:37;3.67;;;1.85;;
74630;SDS011;63138;55.082;38.804;2023-05-29T14:27:04;3.93;;;2.13;;
74630;SDS011;63138;55.082;38.804;2023-05-29T14:29:31;6.60;;;2.47;;
74630;SDS011;63138;55.082;38.804;2023-05-29T14:31:56;5.78;;;2.40;;
74630;SDS011;63138;55.082;38.804;2023-05-29T14:34:23;8.77;;;3.25;;
74630;SDS011;63138;55.082;38.804;2023-05-29T14:36:49;4.10;;;2.10;;
74630;SDS011;63138;55.082;38.804;2023-05-29T14:39:15;3.97;;;2.40;;
74630;SDS011;63138;55.082;38.804;2023-05-29T14:41:41;4.22;;;2.35;;
74630;SDS011;63138;55.082;38.804;2023-05-29T14:44:07;4.03;;;2.03;;
74630;SDS011;63138;55.082;38.804;2023-05-29T14:46:33;6.00;;;2.30;;
74630;SDS011;63138;55.082;38.804;2023-05-29T14:48:59;6.10;;;1.95;;
74630;SDS011;63138;55.082;38.804;2023-05-29T14:51:26;4.78;;;2.35;;
74630;SDS011;63138;55.082;38.804;2023-05-29T14:53:53;4.27;;;1.97;;
74630;SDS011;63138;55.082;38.804;2023-05-29T14:56:19;7.45;;;2.00;;
74630;SDS011;63138;55.082;38.804;2023-05-29T14:58:45;6.55;;;2.00;;
74630;SDS011;63138;55.082;38.804;2023-05-29T15:01:14;4.15;;;1.75;;
74630;SDS011;63138;55.082;38.804;2023-05-29T15:03:41;5.07;;;2.10;;
74630;SDS011;63138;55.082;38.804;2023-05-29T15:06:08;4.67;;;1.90;;
74630;SDS011;63138;55.082;38.804;2023-05-29T15:08:35;3.83;;;1.88;;
74630;SDS011;63138;55.082;38.804;2023-05-29T15:11:01;5.07;;;2.20;;
74630;SDS011;63138;55.082;38.804;2023-05-29T15:13:33;3.88;;;2.20;;
74630;SDS011;63138;55.082;38.804;2023-05-29T15:16:01;3.90;;;2.07;;
74630;SDS011;63138;55.082;38.804;2023-05-29T15:18:30;4.13;;;1.90;;
74630;SDS011;63138;55.082;38.804;2023-05-29T15:20:56;6.00;;;2.20;;
74630;SDS011;63138;55.082;38.804;2023-05-29T15:23:24;5.57;;;1.88;;
74630;SDS011;63138;55.082;38.804;2023-05-29T15:25:50;4.07;;;2.13;;
74630;SDS011;63138;55.082;38.804;2023-05-29T15:28:16;4.43;;;1.93;;
74630;SDS011;63138;55.082;38.804;2023-05-29T15:30:43;4.07;;;2.30;;
74630;SDS011;63138;55.082;38.804;2023-05-29T15:33:09;4.53;;;2.00;;
74630;SDS011;63138;55.082;38.804;2023-05-29T15:35:36;5.75;;;1.90;;
74630;SDS011;63138;55.082;38.804;2023-05-29T15:38:06;4.30;;;2.03;;
74630;SDS011;63138;55.082;38.804;2023-05-29T15:40:32;5.43;;;2.20;;